Time;durP1;ratioP1;P1;durP2;ratioP2;P2;SDS_P1;SDS_P2;PMS_P1;PMS_P2;Temp;Humidity;BMP_temperature;BMP_pressure;BME280_temperature;BME280_humidity;BME280_pressure;Samples;Min_cycle;Max_cycle;Signal;HPM_P1;HPM_P2
2022/06/24 00:00:14;;;;;;;;;;;;;;;-144.99;92.44;52166.81;5079807;28;19973;-77
2022/06/24 00:02:41;;;;;;;;;;;;;;;-144.99;92.28;52174.97;5084964;28;19920;-77
2022/06/24 00:05:10;;;;;;;;;;;;;;;-144.99;91.66;52170.91;5084453;28;20298;-76
2022/06/24 00:07:44;;;;;;;;;;;;;;;-144.99;91.30;52199.44;5080333;28;19966;-77
2022/06/24 00:10:12;;;;;;;;;;;;;;;-144.99;91.11;52203.50;5087372;28;19925;-77
2022/06/24 00:12:38;;;;;;;;;;;;;;;-144.99;90.50;52166.81;5082560;28;19920;-77
2022/06/24 00:15:07;;;;;;;;;;;;;;;-144.99;90.25;52203.50;5081864;28;19967;-77
2022/06/24 00:17:34;;;;;;;;;;;;;;;-144.99;90.04;52191.28;5082354;28;19928;-76
2022/06/24 00:20:01;;;;;;;;;;;;;;;-144.99;89.11;52207.59;5076885;28;20268;-76
2022/06/24 00:22:29;;;;;;;;;;;;;;;-144.99;90.05;52199.44;5080517;28;19920;-77
2022/06/24 00:25:09;;;;;;;;;;;;;;;-144.99;90.04;52205.53;5084504;28;19921;-77
2022/06/24 00:27:36;;;;;;;;;;;;;;;-144.99;89.62;52197.41;5093551;28;19924;-77
2022/06/24 00:30:10;;;;;;;;;;;;;;;-144.99;90.00;52195.34;5098460;28;20311;-76
2022/06/24 00:32:37;;;;;;;;;;;;;;;-144.99;89.36;52162.75;5092975;28;19982;-76
2022/06/24 00:35:04;;;;;;;;;;;;;;;-144.99;88.44;52174.97;5087702;28;19920;-77
2022/06/24 00:37:31;;;;;;;;;;;;;;;-144.99;88.34;52174.97;5089276;28;19928;-76
2022/06/24 00:39:59;;;;;;;;;;;;;;;-144.99;87.20;52191.28;5084721;28;19920;-77
2022/06/24 00:42:26;;;;;;;;;;;;;;;-144.99;86.91;52148.47;5083781;28;19931;-76
2022/06/24 00:44:57;;;;;;;;;;;;;;;-144.99;87.49;52211.66;5087565;28;19924;-77
2022/06/24 00:47:25;;;;;;;;;;;;;;;-144.99;86.81;52191.28;5085285;28;19920;-76
2022/06/24 00:49:53;;;;;;;;;;;;;;;-144.99;85.81;52187.19;5087843;28;20328;-77
2022/06/24 00:52:19;;;;;;;;;;;;;;;-144.99;85.47;52191.28;5083654;28;19972;-77
2022/06/24 00:54:46;;;;;;;;;;;;;;;-144.99;85.34;52191.28;5089059;28;20057;-79
2022/06/24 00:57:13;;;;;;;;;;;;;;;-144.99;85.38;52201.47;5095646;28;20271;-79
2022/06/24 00:59:40;;;;;;;;;;;;;;;-144.99;85.35;52174.97;5093240;28;19919;-78
2022/06/24 01:02:07;;;;;;;;;;;;;;;-144.99;84.86;52191.28;5087691;28;19923;-79
2022/06/24 01:04:35;;;;;;;;;;;;;;;-144.99;84.82;52211.66;5079204;28;20458;-78
2022/06/24 01:07:02;;;;;;;;;;;;;;;-144.99;83.85;52181.09;5080981;28;19989;-77
2022/06/24 01:09:29;;;;;;;;;;;;;;;-144.99;83.92;52177.00;5078354;28;19926;-78
2022/06/24 01:11:55;;;;;;;;;;;;;;;-144.99;83.89;52195.34;5084056;28;19935;-77
2022/06/24 01:14:22;;;;;;;;;;;;;;;-144.99;83.77;52203.50;5073268;28;19921;-78
2022/06/24 01:16:49;;;;;;;;;;;;;;;-144.99;82.78;52185.16;5084629;28;19966;-78
2022/06/24 01:19:15;;;;;;;;;;;;;;;-144.99;82.87;52179.06;5088373;28;19924;-78
2022/06/24 01:21:44;;;;;;;;;;;;;;;-144.99;82.84;52205.53;5076113;28;19953;-76
2022/06/24 01:24:11;;;;;;;;;;;;;;;-144.99;82.50;52211.66;5081216;28;20405;-77
2022/06/24 01:26:39;;;;;;;;;;;;;;;-144.99;82.41;52183.13;5081445;28;19932;-76
2022/06/24 01:29:06;;;;;;;;;;;;;;;-144.99;82.00;52207.59;5074039;28;19959;-77
2022/06/24 01:31:32;;;;;;;;;;;;;;;-144.99;81.84;52203.50;5077023;28;19957;-77
2022/06/24 01:33:59;;;;;;;;;;;;;;;-144.99;82.33;52191.28;5085603;28;19920;-77
2022/06/24 01:36:25;;;;;;;;;;;;;;;-144.99;81.86;52187.19;5076599;28;19924;-78
2022/06/24 01:38:54;;;;;;;;;;;;;;;-144.99;81.84;52183.13;5077766;28;19958;-76
2022/06/24 01:41:20;;;;;;;;;;;;;;;-144.99;81.15;52199.44;5089158;28;20023;-78
2022/06/24 01:43:47;;;;;;;;;;;;;;;-144.99;82.58;52207.59;5090374;28;19939;-78
2022/06/24 01:46:13;;;;;;;;;;;;;;;-144.99;81.57;52195.34;5090920;28;19920;-79
2022/06/24 01:48:40;;;;;;;;;;;;;;;-144.99;81.01;52199.44;5093227;28;19955;-79
2022/06/24 01:51:07;;;;;;;;;;;;;;;-144.99;80.89;52217.78;5083303;28;19930;-79
2022/06/24 01:53:34;;;;;;;;;;;;;;;-144.99;81.03;52219.81;5088106;28;19946;-78
2022/06/24 01:56:02;;;;;;;;;;;;;;;-144.99;81.02;52199.44;5078824;28;20412;-79
2022/06/24 01:58:29;;;;;;;;;;;;;;;-144.99;81.14;52201.47;5087551;28;19976;-78
2022/06/24 02:00:55;;;;;;;;;;;;;;;-144.99;81.02;52236.13;5084419;28;19932;-78
2022/06/24 02:03:22;;;;;;;;;;;;;;;-144.99;81.21;52185.16;5090032;28;19932;-79
2022/06/24 02:05:48;;;;;;;;;;;;;;;-144.99;81.08;52230.00;5100365;28;19957;-77
2022/06/24 02:08:15;;;;;;;;;;;;;;;-144.99;81.60;52219.81;5098751;28;19908;-77
2022/06/24 02:13:27;;;;;;;;;;;;;;;-144.99;80.77;52158.66;5080127;28;20410;-77
2022/06/24 02:15:54;;;;;;;;;;;;;;;-144.99;80.46;52223.88;5086155;28;19973;-78
2022/06/24 02:18:20;;;;;;;;;;;;;;;-144.99;80.43;52199.44;5086465;28;19924;-78
2022/06/24 02:20:47;;;;;;;;;;;;;;;-144.99;80.11;52248.34;5091638;28;19920;-78
2022/06/24 02:23:13;;;;;;;;;;;;;;;-144.99;79.94;52264.66;5092998;28;19928;-76
2022/06/24 02:25:40;;;;;;;;;;;;;;;-144.99;80.17;52195.34;5083367;28;19955;-76
2022/06/24 02:28:07;;;;;;;;;;;;;;;-144.99;80.62;52236.13;5087145;28;19920;-76
2022/06/24 02:30:35;;;;;;;;;;;;;;;-144.99;80.53;52225.94;5081216;28;19919;-76
2022/06/24 02:33:01;;;;;;;;;;;;;;;-144.99;80.96;52205.53;5077881;28;19927;-76
2022/06/24 02:35:28;;;;;;;;;;;;;;;-144.99;81.31;52227.97;5080022;28;20460;-75
2022/06/24 02:37:54;;;;;;;;;;;;;;;-144.99;81.31;52195.34;5079335;28;20020;-76
2022/06/24 02:43:11;;;;;;;;;;;;;;;-144.99;81.42;52223.88;5071172;28;19939;-77
2022/06/24 02:45:39;;;;;;;;;;;;;;;-144.99;81.36;52199.44;5074751;28;20427;-77
2022/06/24 02:48:06;;;;;;;;;;;;;;;-144.99;81.56;52264.66;5080937;28;19924;-77
2022/06/24 02:50:37;;;;;;;;;;;;;;;-144.99;82.17;52215.75;5093468;28;20000;-79
2022/06/24 02:53:04;;;;;;;;;;;;;;;-144.99;81.96;52195.34;5094619;28;20095;-78
2022/06/24 02:55:30;;;;;;;;;;;;;;;-144.99;82.32;52207.59;5091404;28;20437;-77
2022/06/24 02:57:57;;;;;;;;;;;;;;;-144.99;82.70;52207.59;5080311;28;19942;-78
2022/06/24 03:00:24;;;;;;;;;;;;;;;-144.99;82.71;52227.97;5079921;28;19969;-78
2022/06/24 03:02:51;;;;;;;;;;;;;;;-144.99;82.32;52215.75;5086215;28;20051;-77
2022/06/24 03:05:18;;;;;;;;;;;;;;;-144.99;81.72;52227.97;5078585;28;19920;-79
2022/06/24 03:07:45;;;;;;;;;;;;;;;-144.99;81.61;52219.81;5080262;28;19931;-77
2022/06/24 03:10:11;;;;;;;;;;;;;;;-144.99;81.19;52197.41;5078759;28;19920;-78
2022/06/24 03:12:38;;;;;;;;;;;;;;;-144.99;81.41;52240.19;5080328;28;19931;-76
2022/06/24 03:15:05;;;;;;;;;;;;;;;-144.99;81.05;52242.22;5084393;28;19920;-78
2022/06/24 03:17:31;;;;;;;;;;;;;;;-144.99;80.90;52234.09;5081963;28;20032;-78
2022/06/24 03:19:59;;;;;;;;;;;;;;;-144.99;80.24;52199.44;5078592;28;20405;-77
2022/06/24 03:22:26;;;;;;;;;;;;;;;-144.99;80.17;52195.34;5087295;28;19920;-78
2022/06/24 03:24:52;;;;;;;;;;;;;;;-144.99;80.02;52223.88;5073711;28;19999;-77
2022/06/24 03:27:19;;;;;;;;;;;;;;;-144.99;80.30;52166.81;5087978;28;19924;-77
2022/06/24 03:29:46;;;;;;;;;;;;;;;-144.99;79.92;52199.44;5084275;28;19924;-76
2022/06/24 03:32:12;;;;;;;;;;;;;;;-144.99;79.19;52225.94;5078793;28;20406;-77
2022/06/24 03:34:39;;;;;;;;;;;;;;;-144.99;78.74;52177.00;5078827;28;19920;-77
2022/06/24 03:37:07;;;;;;;;;;;;;;;-144.99;78.24;52203.50;5078774;28;19921;-77
2022/06/24 03:39:33;;;;;;;;;;;;;;;-144.99;78.27;52236.13;5081534;28;20356;-78
2022/06/24 03:42:00;;;;;;;;;;;;;;;-144.99;78.06;52195.34;5086564;28;19924;-78
2022/06/24 03:44:27;;;;;;;;;;;;;;;-144.99;77.33;52215.75;5080267;28;19924;-77
2022/06/24 03:46:53;;;;;;;;;;;;;;;-144.99;77.43;52191.28;5077216;28;19974;-77
2022/06/24 03:49:20;;;;;;;;;;;;;;;-144.99;77.37;52195.34;5076532;28;19927;-77
2022/06/24 03:51:46;;;;;;;;;;;;;;;-144.99;76.85;52191.28;5079827;28;20440;-78
2022/06/24 03:54:14;;;;;;;;;;;;;;;-144.99;76.45;52248.34;5088240;28;20360;-78
2022/06/24 03:56:41;;;;;;;;;;;;;;;-144.99;76.29;52197.41;5079750;28;20375;-76
2022/06/24 03:59:07;;;;;;;;;;;;;;;-144.99;75.90;52197.41;5087133;28;20004;-76
2022/06/24 04:01:34;;;;;;;;;;;;;;;-144.99;75.13;52244.28;5088243;28;19920;-76
2022/06/24 04:04:00;;;;;;;;;;;;;;;-144.99;75.86;52203.50;5089001;28;19920;-77
2022/06/24 04:06:27;;;;;;;;;;;;;;;-144.99;75.19;52199.44;5080590;28;19927;-76
2022/06/24 04:08:55;;;;;;;;;;;;;;;-144.99;74.53;52211.66;5091204;28;19924;-77
2022/06/24 04:11:23;;;;;;;;;;;;;;;-144.99;75.00;52183.13;5091431;28;19928;-75
2022/06/24 04:13:50;;;;;;;;;;;;;;;-144.99;74.13;52179.06;5085930;28;19924;-78
2022/06/24 04:16:17;;;;;;;;;;;;;;;-144.99;74.30;52213.69;5082266;28;20012;-80
2022/06/24 04:18:43;;;;;;;;;;;;;;;-144.99;73.26;52207.59;5088365;28;19966;-81
2022/06/24 04:21:13;;;;;;;;;;;;;;;-144.99;71.63;52187.19;5080489;28;19924;-79
2022/06/24 04:23:39;;;;;;;;;;;;;;;-144.99;71.96;52179.06;5085209;28;20274;-77
2022/06/24 04:26:06;;;;;;;;;;;;;;;-144.99;72.11;52203.50;5084566;28;19920;-79
2022/06/24 04:28:34;;;;;;;;;;;;;;;-144.99;72.28;52179.06;5091540;28;19936;-80
2022/06/24 04:31:01;;;;;;;;;;;;;;;-144.99;71.92;52191.28;5089037;28;19919;-81
2022/06/24 04:33:27;;;;;;;;;;;;;;;-144.99;71.13;52166.81;5081756;28;20371;-79
2022/06/24 04:35:54;;;;;;;;;;;;;;;-144.99;70.59;52211.66;5090209;28;19924;-79
2022/06/24 04:38:20;;;;;;;;;;;;;;;-144.99;70.28;52179.06;5088642;28;20011;-80
2022/06/24 04:40:47;;;;;;;;;;;;;;;-144.99;70.05;52219.81;5085711;28;20440;-79
2022/06/24 04:43:13;;;;;;;;;;;;;;;-144.99;69.06;52170.91;5078874;28;19920;-77
2022/06/24 04:45:43;;;;;;;;;;;;;;;-144.99;69.44;52179.06;5098050;22;20011;-73
2022/06/24 04:48:10;;;;;;;;;;;;;;;-144.99;68.87;52170.91;5108824;28;19926;-73
2022/06/24 04:50:36;;;;;;;;;;;;;;;-144.99;67.72;52181.09;5103322;28;19916;-72
2022/06/24 04:53:03;;;;;;;;;;;;;;;-144.99;67.18;52183.13;5111271;28;20275;-72
2022/06/24 04:55:30;;;;;;;;;;;;;;;-144.99;66.78;52166.81;5099284;28;19934;-72
2022/06/24 04:57:56;;;;;;;;;;;;;;;-144.99;65.94;52191.28;4739760;28;9999738;-72
2022/06/24 05:00:23;;;;;;;;;;;;;;;-144.99;66.25;52179.06;5090824;28;20044;-74
2022/06/24 05:02:51;;;;;;;;;;;;;;;-144.99;66.41;52203.50;5106165;28;19930;-74
2022/06/24 05:05:17;;;;;;;;;;;;;;;-144.99;66.21;52160.72;5098172;28;20120;-74
2022/06/24 05:07:44;;;;;;;;;;;;;;;-144.99;65.67;52158.66;5100831;28;19973;-74
2022/06/24 05:10:10;;;;;;;;;;;;;;;-144.99;65.64;52170.91;5110373;28;20092;-74
2022/06/24 05:12:37;;;;;;;;;;;;;;;-144.99;66.02;52170.91;5108860;28;19924;-74
2022/06/24 05:15:04;;;;;;;;;;;;;;;-144.99;65.40;52174.97;5105059;28;19924;-74
2022/06/24 05:17:30;;;;;;;;;;;;;;;-144.99;64.69;52179.06;5108911;28;20448;-75
2022/06/24 05:19:58;;;;;;;;;;;;;;;-144.99;64.90;52181.09;5108597;28;19931;-75
2022/06/24 05:22:25;;;;;;;;;;;;;;;-144.99;64.23;52191.28;5121106;27;19958;-74
2022/06/24 05:24:51;;;;;;;;;;;;;;;-144.99;64.13;52181.09;5117587;28;19927;-73
2022/06/24 05:27:19;;;;;;;;;;;;;;;-144.99;64.00;52172.94;5112552;27;19927;-74
2022/06/24 05:29:45;;;;;;;;;;;;;;;-144.99;63.64;52185.16;5095422;28;20051;-74
2022/06/24 05:32:12;;;;;;;;;;;;;;;-144.99;63.62;52170.91;5100550;28;19930;-75
2022/06/24 05:34:38;;;;;;;;;;;;;;;-144.99;63.71;52183.13;5102207;28;19988;-74
2022/06/24 05:37:06;;;;;;;;;;;;;;;-144.99;63.51;52156.63;4754762;28;10000100;-73
2022/06/24 05:39:33;;;;;;;;;;;;;;;-144.99;62.95;52170.91;5104690;28;19935;-74
2022/06/24 05:41:59;;;;;;;;;;;;;;;-144.99;62.56;52183.13;5104593;27;19930;-74
2022/06/24 05:44:26;;;;;;;;;;;;;;;-144.99;62.71;52154.59;5111867;27;19920;-74
2022/06/24 05:46:54;;;;;;;;;;;;;;;-144.99;62.02;52154.59;5103645;28;19931;-74
2022/06/24 05:49:21;;;;;;;;;;;;;;;-144.99;62.27;52146.44;5100725;27;20030;-74
2022/06/24 05:51:47;;;;;;;;;;;;;;;-144.99;61.85;52183.13;5129128;27;20295;-74
2022/06/24 05:56:59;;;;;;;;;;;;;;;-144.99;61.41;52187.19;5114048;27;19927;-74
2022/06/24 05:59:26;;;;;;;;;;;;;;;-144.99;60.98;52183.13;5109915;28;19958;-74
2022/06/24 06:01:52;;;;;;;;;;;;;;;-144.99;60.41;52140.31;5122740;27;20442;-74
2022/06/24 06:04:19;;;;;;;;;;;;;;;-144.99;60.03;52177.00;5110406;28;19976;-74
2022/06/24 06:06:45;;;;;;;;;;;;;;;-144.99;59.68;52146.44;5125515;27;19946;-74
2022/06/24 06:09:12;;;;;;;;;;;;;;;-144.99;59.35;52142.38;5124798;27;19925;-75
2022/06/24 06:11:40;;;;;;;;;;;;;;;-144.99;59.10;52130.13;5109280;28;19923;-75
2022/06/24 06:14:07;;;;;;;;;;;;;;;-144.99;58.75;52177.00;5109995;28;19977;-74
2022/06/24 06:16:33;;;;;;;;;;;;;;;-144.99;57.83;52140.31;5126652;27;19934;-74
2022/06/24 06:19:00;;;;;;;;;;;;;;;-144.99;57.59;52146.44;5130577;27;19927;-74
2022/06/24 06:21:26;;;;;;;;;;;;;;;-144.99;57.16;52150.53;5115635;27;19920;-74
2022/06/24 06:23:53;;;;;;;;;;;;;;;-144.99;56.90;52134.22;5116558;27;19969;-74
2022/06/24 06:26:19;;;;;;;;;;;;;;;-144.99;56.52;52117.91;5107392;28;19955;-74
2022/06/24 06:28:47;;;;;;;;;;;;;;;-144.99;56.54;52128.09;5102750;28;19924;-74
2022/06/24 06:31:14;;;;;;;;;;;;;;;-144.99;56.16;52134.22;5106797;28;19924;-74
2022/06/24 06:33:40;;;;;;;;;;;;;;;-144.99;56.29;52121.97;5099287;28;20363;-74
2022/06/24 06:36:08;;;;;;;;;;;;;;;-144.99;55.66;52126.06;5103430;28;19927;-74
2022/06/24 06:38:34;;;;;;;;;;;;;;;-144.99;55.49;52134.22;5109083;28;19978;-74
2022/06/24 06:41:01;;;;;;;;;;;;;;;-144.99;55.35;52105.69;5104341;28;19949;-74
2022/06/24 06:43:28;;;;;;;;;;;;;;;-144.99;55.08;52174.97;5104069;28;19966;-74
2022/06/24 06:45:56;;;;;;;;;;;;;;;-144.99;54.34;52158.66;5101861;28;19927;-73
2022/06/24 06:48:23;;;;;;;;;;;;;;;-144.99;54.52;52136.25;5104314;28;19966;-74
2022/06/24 06:50:53;;;;;;;;;;;;;;;-144.99;54.34;52097.53;5104443;28;20373;-73
2022/06/24 06:53:20;;;;;;;;;;;;;;;-144.99;53.73;52121.97;5112150;28;19981;-74
2022/06/24 06:55:47;;;;;;;;;;;;;;;-144.99;52.99;52095.50;4757456;28;10000420;-74
2022/06/24 06:58:13;;;;;;;;;;;;;;;-144.99;52.44;52126.06;5106691;27;19934;-74
2022/06/24 07:00:40;;;;;;;;;;;;;;;-144.99;52.64;52132.19;5100896;28;19970;-75
2022/06/24 07:03:07;;;;;;;;;;;;;;;-144.99;52.15;52101.59;5112599;27;19930;-74
2022/06/24 07:05:34;;;;;;;;;;;;;;;-144.99;52.08;52126.06;5107901;28;19965;-74
2022/06/24 07:08:01;;;;;;;;;;;;;;;-144.99;52.03;52140.31;5115220;27;20534;-74
2022/06/24 07:10:27;;;;;;;;;;;;;;;-144.99;51.27;52134.22;5102166;27;20216;-73
2022/06/24 07:12:54;;;;;;;;;;;;;;;-144.99;51.21;52099.56;5106579;27;20393;-74
2022/06/24 07:15:20;;;;;;;;;;;;;;;-144.99;51.16;52130.13;5103560;27;19919;-74
2022/06/24 07:17:47;;;;;;;;;;;;;;;-144.99;50.93;52093.44;5102181;28;19951;-75
2022/06/24 07:20:15;;;;;;;;;;;;;;;-144.99;50.32;52077.16;5107212;28;20355;-75
2022/06/24 07:22:41;;;;;;;;;;;;;;;-144.99;49.91;52138.28;5098122;28;19920;-74
2022/06/24 07:25:08;;;;;;;;;;;;;;;-144.99;49.75;52105.69;5105640;28;19946;-72
2022/06/24 07:27:35;;;;;;;;;;;;;;;-144.99;50.02;52093.44;5101264;28;19927;-73
2022/06/24 07:30:02;;;;;;;;;;;;;;;-144.99;49.97;52085.31;5105202;28;20014;-72
2022/06/24 07:32:29;;;;;;;;;;;;;;;-144.99;49.11;52073.06;5102374;28;20064;-73
2022/06/24 07:34:55;;;;;;;;;;;;;;;-144.99;48.91;52093.44;5099787;28;19973;-74
2022/06/24 07:37:23;;;;;;;;;;;;;;;-144.99;48.66;52105.69;5108023;28;20010;-74
2022/06/24 07:39:50;;;;;;;;;;;;;;;-144.99;48.79;52089.38;5118120;28;19919;-74
2022/06/24 07:42:16;;;;;;;;;;;;;;;-144.99;48.69;52081.22;5113547;28;20336;-73
2022/06/24 07:44:43;;;;;;;;;;;;;;;-144.99;49.07;52093.44;5118817;28;20295;-73
2022/06/24 07:47:10;;;;;;;;;;;;;;;-144.99;48.71;52081.22;5108915;28;20010;-72
2022/06/24 07:49:36;;;;;;;;;;;;;;;-144.99;48.32;52101.59;5109067;28;19927;-74
2022/06/24 07:52:03;;;;;;;;;;;;;;;-144.99;48.22;52044.53;5111789;28;20381;-74
2022/06/24 07:54:31;;;;;;;;;;;;;;;-144.99;48.23;52097.53;5120275;28;19927;-74
2022/06/24 07:56:57;;;;;;;;;;;;;;;-144.99;48.08;52109.75;5104019;28;20007;-74
2022/06/24 07:59:24;;;;;;;;;;;;;;;-144.99;48.09;52093.44;5118503;28;20252;-73
2022/06/24 08:01:50;;;;;;;;;;;;;;;-144.99;47.61;52079.19;5128087;28;19930;-74
2022/06/24 08:04:17;;;;;;;;;;;;;;;-144.99;47.09;52060.84;5114074;28;19981;-74
2022/06/24 08:06:46;;;;;;;;;;;;;;;-144.99;46.92;52097.53;5109234;28;19920;-74
2022/06/24 08:09:12;;;;;;;;;;;;;;;-144.99;47.44;52103.66;5098137;28;20426;-73
2022/06/24 08:11:40;;;;;;;;;;;;;;;-144.99;46.66;52062.88;5096760;28;19924;-73
2022/06/24 08:14:07;;;;;;;;;;;;;;;-144.99;46.77;52079.19;5107814;28;19976;-73
2022/06/24 08:16:33;;;;;;;;;;;;;;;-144.99;46.22;52093.44;5116406;28;19923;-74
2022/06/24 08:19:00;;;;;;;;;;;;;;;-144.99;45.73;52073.06;5103001;28;20363;-73
2022/06/24 08:21:27;;;;;;;;;;;;;;;-144.99;45.99;52069.00;5116793;27;19964;-73
2022/06/24 08:23:53;;;;;;;;;;;;;;;-144.99;45.84;52060.84;5131951;27;19942;-74
2022/06/24 08:26:20;;;;;;;;;;;;;;;-144.99;45.70;52069.00;5129471;27;19923;-73
2022/06/24 08:28:48;;;;;;;;;;;;;;;-144.99;45.90;52056.78;5103684;28;19970;-73
2022/06/24 08:31:15;;;;;;;;;;;;;;;-144.99;45.81;52075.09;5099807;28;20383;-73
2022/06/24 08:33:41;;;;;;;;;;;;;;;-144.99;44.48;52052.69;5112502;28;19919;-73
2022/06/24 08:36:08;;;;;;;;;;;;;;;-144.99;44.67;52064.91;5110926;28;19980;-74
2022/06/24 08:38:35;;;;;;;;;;;;;;;-144.99;44.57;52069.00;5112656;28;20103;-74
2022/06/24 08:41:02;;;;;;;;;;;;;;;-144.99;44.36;52028.22;5100205;28;20383;-75
2022/06/24 08:43:31;;;;;;;;;;;;;;;-144.99;44.68;52069.00;5096931;28;19931;-74
2022/06/24 08:45:59;;;;;;;;;;;;;;;-144.99;44.57;52036.38;5109454;28;19927;-74
2022/06/24 08:48:26;;;;;;;;;;;;;;;-144.99;44.54;52060.84;5104885;28;19993;-73
2022/06/24 08:50:53;;;;;;;;;;;;;;;-144.99;44.23;52036.38;5106517;28;20259;-75
2022/06/24 08:53:22;;;;;;;;;;;;;;;-144.99;44.73;52081.22;5103098;28;19963;-73
2022/06/24 08:55:50;;;;;;;;;;;;;;;-144.99;44.33;52069.00;5101072;28;19984;-73
2022/06/24 08:58:18;;;;;;;;;;;;;;;-144.99;44.21;52044.53;5100730;28;19973;-74
2022/06/24 09:00:44;;;;;;;;;;;;;;;-144.99;44.31;52034.34;5100400;28;19946;-74
2022/06/24 09:03:12;;;;;;;;;;;;;;;-144.99;43.70;52048.63;5109074;28;20342;-75
2022/06/24 09:05:40;;;;;;;;;;;;;;;-144.99;44.32;52020.09;5098306;28;19920;-75
2022/06/24 09:08:08;;;;;;;;;;;;;;;-144.99;43.32;52032.31;5109516;28;20374;-75
2022/06/24 09:10:35;;;;;;;;;;;;;;;-144.99;43.59;52036.38;5108865;28;20386;-75
2022/06/24 09:13:02;;;;;;;;;;;;;;;-144.99;43.72;52024.16;5105882;28;20490;-75
2022/06/24 09:15:28;;;;;;;;;;;;;;;-144.99;43.46;52024.16;5109002;28;19932;-75
2022/06/24 09:17:55;;;;;;;;;;;;;;;-144.99;43.72;52026.19;5094356;28;19924;-75
2022/06/24 09:20:24;;;;;;;;;;;;;;;-144.99;43.85;52062.88;5105934;28;20020;-76
2022/06/24 09:22:51;;;;;;;;;;;;;;;-144.99;43.40;52032.31;5116600;28;20309;-75
2022/06/24 09:25:17;;;;;;;;;;;;;;;-144.99;42.88;52032.31;5133450;28;20144;-76
2022/06/24 09:27:45;;;;;;;;;;;;;;;-144.99;42.59;52020.09;5124401;28;19928;-76
2022/06/24 09:30:12;;;;;;;;;;;;;;;-144.99;43.22;52028.22;5111466;28;19936;-76
2022/06/24 09:32:49;;;;;;;;;;;;;;;-144.99;42.75;52007.84;5119491;28;19918;-76
2022/06/24 09:35:15;;;;;;;;;;;;;;;-144.99;41.97;52046.56;5128585;28;19975;-76
2022/06/24 09:37:44;;;;;;;;;;;;;;;-144.99;41.62;52016.00;5133924;28;19923;-76
2022/06/24 09:40:19;;;;;;;;;;;;;;;-144.99;42.05;51995.63;5134110;28;19908;-76
2022/06/24 09:42:52;;;;;;;;;;;;;;;-144.99;41.84;51971.16;5127527;28;19920;-76
2022/06/24 09:45:18;;;;;;;;;;;;;;;-144.99;42.08;52011.94;5122171;28;19914;-76
2022/06/24 09:47:47;;;;;;;;;;;;;;;-144.99;42.38;52024.16;5130641;28;20005;-76
2022/06/24 09:50:14;;;;;;;;;;;;;;;-144.99;42.31;51991.56;5122198;28;20578;-76
2022/06/24 09:52:41;;;;;;;;;;;;;;;-144.99;41.91;52018.03;5122939;28;19968;-78
2022/06/24 09:55:09;;;;;;;;;;;;;;;-144.99;41.70;51991.56;5121106;28;19938;-77
2022/06/24 09:57:36;;;;;;;;;;;;;;;-144.99;41.29;52034.34;5124659;28;19928;-77
2022/06/24 10:02:49;;;;;;;;;;;;;;;-144.99;41.53;51967.09;5106712;28;19953;-75
2022/06/24 10:05:18;;;;;;;;;;;;;;;-144.99;40.63;51975.25;5111015;28;19969;-76
2022/06/24 10:07:46;;;;;;;;;;;;;;;-144.99;40.67;51999.69;5106626;28;19924;-75
2022/06/24 10:10:15;;;;;;;;;;;;;;;-144.99;40.25;51958.94;5104064;28;20420;-76
2022/06/24 10:12:46;;;;;;;;;;;;;;;-144.99;40.71;51987.47;5112704;28;20387;-76
2022/06/24 10:15:14;;;;;;;;;;;;;;;-144.99;40.20;51971.16;5112772;28;19919;-76
2022/06/24 10:17:41;;;;;;;;;;;;;;;-144.99;39.93;51950.78;5108263;28;19973;-75
2022/06/24 10:20:09;;;;;;;;;;;;;;;-144.99;40.06;51983.41;5110630;28;19946;-77
2022/06/24 10:22:36;;;;;;;;;;;;;;;-144.99;40.70;51963.03;5104464;28;19924;-78
2022/06/24 10:25:03;;;;;;;;;;;;;;;-144.99;40.05;52003.78;5111631;28;19927;-77
2022/06/24 10:27:44;;;;;;;;;;;;;;;-144.99;39.67;51954.88;5110513;28;19958;-76
2022/06/24 10:30:12;;;;;;;;;;;;;;;-144.99;39.46;51926.34;5102344;28;20323;-76
2022/06/24 10:33:02;;;;;;;;;;;;;;;-144.99;39.54;51963.03;5099194;28;19924;-75
2022/06/24 10:35:48;;;;;;;;;;;;;;;-144.99;39.15;51922.25;5096613;28;20012;-76
2022/06/24 10:38:15;;;;;;;;;;;;;;;-144.99;39.92;51963.03;5105800;28;19951;-76
2022/06/24 10:40:42;;;;;;;;;;;;;;;-144.99;39.13;51916.16;5106330;28;19924;-77
2022/06/24 10:43:08;;;;;;;;;;;;;;;-144.99;39.07;51936.53;5104888;28;19919;-77
2022/06/24 10:45:37;;;;;;;;;;;;;;;-144.99;40.02;51914.09;5103472;28;19927;-77
2022/06/24 10:48:04;;;;;;;;;;;;;;;-144.99;39.48;51954.88;5105626;28;19931;-76
2022/06/24 10:50:31;;;;;;;;;;;;;;;-144.99;39.21;51926.34;5108237;28;20318;-77
2022/06/24 10:53:02;;;;;;;;;;;;;;;-144.99;39.37;51934.50;5108436;28;19924;-75
2022/06/24 10:55:49;;;;;;;;;;;;;;;-144.99;39.41;51963.03;5094439;28;20067;-75
2022/06/24 10:58:18;;;;;;;;;;;;;;;-144.99;39.67;51936.53;5101016;27;19930;-78
2022/06/24 11:00:51;;;;;;;;;;;;;;;-144.99;39.31;51910.03;5096102;28;20019;-77
2022/06/24 11:03:20;;;;;;;;;;;;;;;-144.99;39.16;51873.34;5109785;27;19919;-75
2022/06/24 11:05:47;;;;;;;;;;;;;;;-144.99;38.38;51899.84;5129270;27;19929;-76
2022/06/24 11:08:15;;;;;;;;;;;;;;;-144.99;37.78;51897.81;5107474;27;19938;-75
2022/06/24 11:10:42;;;;;;;;;;;;;;;-144.99;38.18;51885.56;5093118;28;19923;-76
2022/06/24 11:13:10;;;;;;;;;;;;;;;-144.99;38.09;51885.56;5107131;28;20432;-76
2022/06/24 11:15:37;;;;;;;;;;;;;;;-144.99;37.41;51873.34;5118673;27;19987;-79
2022/06/24 11:18:08;;;;;;;;;;;;;;;-144.99;38.06;51877.44;5129463;27;19919;-78
2022/06/24 11:20:37;;;;;;;;;;;;;;;-144.99;37.60;51867.22;5111498;28;20439;-76
2022/06/24 11:23:07;;;;;;;;;;;;;;;-144.99;37.43;51922.25;5107902;28;20338;-76
2022/06/24 11:25:34;;;;;;;;;;;;;;;-144.99;37.54;51938.56;5121024;27;20358;-77
2022/06/24 11:28:00;;;;;;;;;;;;;;;-144.99;37.67;51922.25;5110501;27;19926;-76
2022/06/24 11:30:27;;;;;;;;;;;;;;;-144.99;37.79;51897.81;5115994;27;20027;-75
2022/06/24 11:32:54;;;;;;;;;;;;;;;-144.99;37.49;51918.19;5112358;27;19924;-78
2022/06/24 11:35:23;;;;;;;;;;;;;;;-144.99;37.81;51946.72;5108261;28;19938;-77
2022/06/24 11:37:50;;;;;;;;;;;;;;;-144.99;38.17;52009.91;5124919;28;20301;-78
2022/06/24 11:40:20;;;;;;;;;;;;;;;-144.99;38.72;51967.09;5123413;28;19920;-76
2022/06/24 11:42:47;;;;;;;;;;;;;;;-144.99;39.28;52040.47;5107101;28;19967;-76
2022/06/24 11:45:14;;;;;;;;;;;;;;;-144.99;39.89;51946.72;5112437;28;20014;-76
2022/06/24 11:47:40;;;;;;;;;;;;;;;-144.99;38.84;51963.03;5130356;28;19938;-77
2022/06/24 11:50:17;;;;;;;;;;;;;;;-144.99;38.45;51934.50;5127956;28;19930;-77
2022/06/24 11:52:48;;;;;;;;;;;;;;;-144.99;38.20;51901.88;5116471;28;19976;-77
2022/06/24 11:55:25;;;;;;;;;;;;;;;-144.99;38.66;51963.03;5109772;28;19930;-76
2022/06/24 11:57:53;;;;;;;;;;;;;;;-144.99;38.92;52024.16;5103993;28;19930;-76
2022/06/24 12:00:20;;;;;;;;;;;;;;;-144.99;39.33;52024.16;5104391;28;19997;-75
2022/06/24 12:02:46;;;;;;;;;;;;;;;-144.99;39.70;51995.63;5114778;28;19935;-78
2022/06/24 12:05:13;;;;;;;;;;;;;;;-144.99;39.41;52020.09;5108734;28;19973;-77
2022/06/24 12:07:40;;;;;;;;;;;;;;;-144.99;39.44;52005.81;5111635;28;20324;-75
2022/06/24 12:10:08;;;;;;;;;;;;;;;-144.99;40.07;52020.09;5113643;28;19919;-76
2022/06/24 12:12:37;;;;;;;;;;;;;;;-144.99;40.07;52040.47;5107139;28;19927;-76
2022/06/24 12:15:04;;;;;;;;;;;;;;;-144.99;40.60;52044.53;5105667;28;19919;-76
2022/06/24 12:17:31;;;;;;;;;;;;;;;-144.99;41.75;52024.16;5111732;28;19923;-76
2022/06/24 12:20:01;;;;;;;;;;;;;;;-144.99;48.77;52134.22;5114594;28;20294;-74
2022/06/24 12:22:29;;;;;;;;;;;;;;;-144.99;63.72;52101.59;5105265;28;19998;-74
2022/06/24 12:25:02;;;;;;;;;;;;;;;-144.99;73.49;52162.75;5113735;28;20473;-75
2022/06/24 12:27:33;;;;;;;;;;;;;;;-144.99;81.11;52158.66;5104196;28;19985;-76
2022/06/24 12:30:00;;;;;;;;;;;;;;;-144.99;92.24;52179.06;5111108;28;20006;-74
2022/06/24 12:32:27;;;;;;;;;;;;;;;-144.99;98.61;52162.75;5100332;28;19920;-76
2022/06/24 12:34:56;;;;;;;;;;;;;;;-144.99;100.00;52170.91;5109937;28;23236;-74
2022/06/24 12:37:22;;;;;;;;;;;;;;;-144.99;100.00;52236.13;5096999;28;19929;-77